createdAt,value
2017-05-28T00:00:07.989Z,0
2017-05-28T00:01:18.405Z,0
2017-05-28T00:02:28.449Z,0
2017-05-28T00:03:38.806Z,0
2017-05-28T00:04:49.154Z,0
2017-05-28T00:05:59.499Z,0
2017-05-28T00:07:09.854Z,0
2017-05-28T00:08:20.213Z,0
2017-05-28T00:09:30.578Z,0
2017-05-28T00:10:40.925Z,0
2017-05-28T00:11:51.268Z,0
2017-05-28T00:13:01.689Z,0
2017-05-28T00:14:12.062Z,0
2017-05-28T00:15:22.098Z,0
2017-05-28T00:16:32.447Z,0
2017-05-28T00:17:42.493Z,0
2017-05-28T00:18:52.841Z,0
2017-05-28T00:20:02.566Z,0
2017-05-28T00:21:12.952Z,0
2017-05-28T00:22:23.010Z,0
2017-05-28T00:23:33.358Z,0
2017-05-28T00:24:43.756Z,0
2017-05-28T00:25:54.118Z,0
2017-05-28T00:27:04.149Z,0
2017-05-28T00:28:14.185Z,0
2017-05-28T00:29:24.219Z,0
2017-05-28T00:30:34.615Z,0
2017-05-28T00:31:44.953Z,0
2017-05-28T00:32:55.305Z,0
2017-05-28T00:34:05.359Z,0
2017-05-28T00:35:15.407Z,0
2017-05-28T00:36:25.815Z,0
2017-05-28T00:37:36.216Z,0
2017-05-28T00:38:46.573Z,0
2017-05-28T00:39:56.911Z,0
2017-05-28T00:41:07.263Z,0
2017-05-28T00:42:17.667Z,0
2017-05-28T00:43:27.712Z,0
2017-05-28T00:44:37.756Z,0
2017-05-28T00:45:47.799Z,0
2017-05-28T00:46:58.146Z,0
2017-05-28T00:48:08.497Z,0
2017-05-28T00:49:18.529Z,0
2017-05-28T00:50:28.870Z,0
2017-05-28T00:51:38.911Z,0
2017-05-28T00:52:49.265Z,0
2017-05-28T00:53:59.613Z,0
2017-05-28T00:55:09.952Z,0
2017-05-28T00:56:20.298Z,0
2017-05-28T00:57:30.646Z,0
2017-05-28T00:58:40.686Z,0
2017-05-28T00:59:50.721Z,0
2017-05-28T01:01:01.139Z,0
2017-05-28T01:02:11.488Z,0
2017-05-28T01:03:21.846Z,0
2017-05-28T01:04:31.270Z,0
2017-05-28T01:05:41.668Z,0
2017-05-28T01:06:51.725Z,0
2017-05-28T01:08:01.762Z,0
2017-05-28T01:09:12.112Z,0
2017-05-28T01:10:22.459Z,0
2017-05-28T01:11:32.884Z,0
2017-05-28T01:12:43.233Z,0
2017-05-28T01:13:53.577Z,0
2017-05-28T01:15:03.932Z,0
2017-05-28T01:16:14.285Z,0
2017-05-28T01:17:24.638Z,0
2017-05-28T01:18:35.006Z,0
2017-05-28T01:19:45.037Z,0
2017-05-28T01:20:55.058Z,0
2017-05-28T01:22:05.409Z,0
2017-05-28T01:23:15.813Z,0
2017-05-28T01:24:26.202Z,0
2017-05-28T01:25:36.550Z,0
2017-05-28T01:26:46.891Z,0
2017-05-28T01:27:57.256Z,0
2017-05-28T01:29:07.609Z,0
2017-05-28T01:30:17.955Z,0
2017-05-28T01:31:28.314Z,0
2017-05-28T01:32:38.366Z,0
2017-05-28T01:33:48.427Z,0
2017-05-28T01:34:58.528Z,0
2017-05-28T01:36:08.889Z,0
2017-05-28T01:37:19.243Z,0
2017-05-28T01:38:29.601Z,0
2017-05-28T01:39:39.943Z,0
2017-05-28T01:40:49.666Z,0
2017-05-28T01:42:00.011Z,0
2017-05-28T01:43:10.041Z,0
2017-05-28T01:44:20.406Z,0
2017-05-28T01:45:30.768Z,0
2017-05-28T01:46:41.173Z,0
2017-05-28T01:47:51.519Z,0
2017-05-28T01:49:01.865Z,0
2017-05-28T01:50:11.591Z,0
2017-05-28T01:51:21.943Z,0
2017-05-28T01:52:31.728Z,0
2017-05-28T01:53:42.091Z,0
2017-05-28T01:54:51.824Z,0
2017-05-28T01:56:02.170Z,0
2017-05-28T01:57:11.894Z,0
2017-05-28T01:58:22.297Z,0
2017-05-28T01:59:32.642Z,0
2017-05-28T02:00:42.987Z,0
2017-05-28T02:01:53.329Z,0
2017-05-28T02:03:03.684Z,0
2017-05-28T02:04:13.783Z,0
2017-05-28T02:05:24.137Z,0
2017-05-28T02:06:34.477Z,0
2017-05-28T02:07:44.191Z,0
2017-05-28T02:08:54.547Z,0
2017-05-28T02:10:04.950Z,0
2017-05-28T02:11:15.304Z,0
2017-05-28T02:12:25.676Z,0
2017-05-28T02:13:35.720Z,0
2017-05-28T02:14:46.058Z,0
2017-05-28T02:15:56.399Z,0
2017-05-28T02:17:06.749Z,0
2017-05-28T02:18:17.098Z,0
2017-05-28T02:19:27.466Z,0
2017-05-28T02:20:37.822Z,0
2017-05-28T02:21:47.901Z,0
2017-05-28T02:22:57.953Z,0
2017-05-28T02:24:08.324Z,0
2017-05-28T02:25:18.369Z,0
2017-05-28T02:26:28.416Z,0
2017-05-28T02:27:38.492Z,0
2017-05-28T02:28:48.217Z,0
2017-05-28T02:29:58.571Z,0
2017-05-28T02:31:08.927Z,0
2017-05-28T02:32:19.280Z,0
2017-05-28T02:33:29.741Z,0
2017-05-28T02:34:40.094Z,0
2017-05-28T02:35:50.148Z,0
2017-05-28T02:37:00.207Z,0
2017-05-28T02:38:10.242Z,0
2017-05-28T02:39:20.329Z,0
2017-05-28T02:40:30.670Z,0
2017-05-28T02:41:40.393Z,0
2017-05-28T02:42:50.476Z,0
2017-05-28T02:44:00.536Z,0
2017-05-28T02:45:10.640Z,0
2017-05-28T02:46:20.990Z,0
2017-05-28T02:47:31.399Z,0
2017-05-28T02:48:41.438Z,0
2017-05-28T02:49:51.856Z,0
2017-05-28T02:51:02.262Z,0
2017-05-28T02:52:11.975Z,0
2017-05-28T02:53:22.341Z,0
2017-05-28T02:54:32.380Z,0
2017-05-28T02:55:42.406Z,0
2017-05-28T02:56:52.483Z,5
2017-05-28T02:58:02.832Z,5
2017-05-28T02:59:13.192Z,5
2017-05-28T03:00:23.542Z,5
2017-05-28T03:01:33.901Z,5
2017-05-28T03:33:35.009Z,35
2017-05-28T03:34:45.369Z,35
2017-05-28T03:35:55.718Z,35
2017-05-28T03:37:06.067Z,40
2017-05-28T03:38:16.417Z,40
2017-05-28T03:39:27.042Z,40
2017-05-28T03:40:37.083Z,40
2017-05-28T03:41:47.441Z,45
2017-05-28T03:42:57.782Z,45
2017-05-28T03:44:08.119Z,45
2017-05-28T03:45:18.146Z,45
2017-05-28T03:46:28.180Z,50
2017-05-28T03:47:38.209Z,50
2017-05-28T03:48:48.550Z,50
2017-05-28T03:49:58.916Z,50
2017-05-28T03:51:09.269Z,55
2017-05-28T03:52:19.612Z,55
2017-05-28T03:53:29.966Z,55
2017-05-28T03:54:40.325Z,55
2017-05-28T03:55:50.364Z,60
2017-05-28T03:57:00.759Z,60
2017-05-28T03:58:11.108Z,60
2017-05-28T03:59:21.452Z,60
2017-05-28T04:00:31.795Z,65
2017-05-28T04:01:41.833Z,65
2017-05-28T04:02:52.396Z,65
2017-05-28T04:04:02.750Z,70
2017-05-28T04:05:13.140Z,70
2017-05-28T04:06:23.499Z,70
2017-05-28T04:07:33.841Z,70
2017-05-28T04:08:43.941Z,70
2017-05-28T04:09:53.972Z,70
2017-05-28T04:11:04.018Z,70
2017-05-28T04:12:14.385Z,75
2017-05-28T04:13:24.732Z,75
2017-05-28T04:14:35.132Z,75
2017-05-28T04:15:45.491Z,80
2017-05-28T04:16:55.842Z,80
2017-05-28T04:18:06.204Z,180
2017-05-28T04:19:16.247Z,440
2017-05-28T04:20:26.637Z,490
2017-05-28T04:21:36.985Z,490
2017-05-28T04:22:47.326Z,490
2017-05-28T04:23:57.375Z,565
2017-05-28T04:25:07.726Z,560
2017-05-28T04:26:18.123Z,565
2017-05-28T04:27:28.478Z,585
2017-05-28T04:28:38.834Z,570
2017-05-28T04:29:48.878Z,560
2017-05-28T04:30:59.220Z,545
2017-05-28T04:32:09.625Z,570
2017-05-28T04:33:19.663Z,570
2017-05-28T04:34:30.040Z,555
2017-05-28T04:35:40.386Z,575
2017-05-28T04:36:50.734Z,585
2017-05-28T04:38:01.153Z,580
2017-05-28T04:39:11.496Z,580
2017-05-28T04:40:21.849Z,585
2017-05-28T04:41:32.202Z,605
2017-05-28T04:42:41.939Z,595
2017-05-28T04:43:51.973Z,605
2017-05-28T04:45:02.035Z,615
2017-05-28T04:46:12.396Z,590
2017-05-28T04:47:22.762Z,595
2017-05-28T04:48:33.108Z,615
2017-05-28T04:49:43.467Z,610
2017-05-28T04:50:53.843Z,600
2017-05-28T04:52:03.896Z,595
2017-05-28T04:53:13.947Z,575
2017-05-28T04:54:24.305Z,605
2017-05-28T04:55:34.712Z,635
2017-05-28T04:56:44.763Z,600
2017-05-28T04:57:55.106Z,600
2017-05-28T04:59:05.462Z,620
2017-05-28T05:00:15.810Z,605
2017-05-28T05:01:25.929Z,620
2017-05-28T05:02:35.985Z,615
2017-05-28T05:03:46.346Z,585
2017-05-28T05:04:56.706Z,595
2017-05-28T05:06:07.061Z,600
2017-05-28T05:07:17.429Z,585
2017-05-28T05:08:27.782Z,595
2017-05-28T05:09:38.138Z,595
2017-05-28T05:10:48.506Z,595
2017-05-28T05:11:58.858Z,585
2017-05-28T05:13:09.233Z,575
2017-05-28T05:14:19.589Z,555
2017-05-28T05:15:29.943Z,560
2017-05-28T05:16:40.370Z,555
2017-05-28T05:17:50.725Z,560
2017-05-28T05:19:01.095Z,555
2017-05-28T05:20:11.450Z,530
2017-05-28T05:21:21.790Z,535
2017-05-28T05:22:31.829Z,520
2017-05-28T05:23:41.865Z,515
2017-05-28T05:24:52.265Z,515
2017-05-28T05:26:02.612Z,520
2017-05-28T05:27:12.969Z,500
2017-05-28T05:28:23.331Z,480
2017-05-28T05:29:33.370Z,470
2017-05-28T05:30:43.759Z,440
2017-05-28T05:31:54.175Z,420
2017-05-28T05:33:03.903Z,390
2017-05-28T05:34:13.935Z,370
2017-05-28T05:35:24.293Z,370
2017-05-28T05:36:34.716Z,360
2017-05-28T05:37:45.107Z,360
2017-05-28T05:38:55.479Z,355
2017-05-28T05:40:05.527Z,350
2017-05-28T05:41:15.886Z,355
2017-05-28T05:42:25.976Z,355
2017-05-28T05:43:36.409Z,355
2017-05-28T05:44:46.786Z,360
2017-05-28T05:45:56.841Z,360
2017-05-28T05:47:07.210Z,360
2017-05-28T05:48:17.611Z,360
2017-05-28T05:49:27.983Z,375
2017-05-28T05:50:38.023Z,390
2017-05-28T05:51:48.391Z,395
2017-05-28T05:52:58.759Z,385
2017-05-28T05:54:09.160Z,380
2017-05-28T05:55:19.521Z,380
2017-05-28T05:56:29.878Z,380
2017-05-28T05:57:40.298Z,380
2017-05-28T05:58:50.348Z,385
2017-05-28T06:00:00.776Z,385
2017-05-28T06:01:10.824Z,390
2017-05-28T06:02:21.173Z,380
2017-05-28T06:03:31.522Z,375
2017-05-28T06:04:41.889Z,370
2017-05-28T06:05:51.938Z,370
2017-05-28T06:07:01.983Z,365
2017-05-28T06:08:12.334Z,370
2017-05-28T06:09:22.708Z,370
2017-05-28T06:10:32.739Z,365
2017-05-28T06:11:42.839Z,360
2017-05-28T06:12:53.206Z,355
2017-05-28T06:14:03.259Z,300
2017-05-28T06:15:13.623Z,195
2017-05-28T06:16:23.984Z,155
2017-05-28T06:17:34.380Z,165
2017-05-28T06:18:44.424Z,165
2017-05-28T06:19:54.779Z,200
2017-05-28T06:21:04.814Z,270
2017-05-28T06:22:14.868Z,315
2017-05-28T06:23:24.925Z,315
2017-05-28T06:24:35.292Z,310
2017-05-28T06:25:45.656Z,305
2017-05-28T06:26:56.014Z,310
2017-05-28T06:28:06.060Z,305
2017-05-28T06:29:16.138Z,305
2017-05-28T06:30:26.176Z,305
2017-05-28T06:31:35.902Z,295
2017-05-28T06:32:45.642Z,285
2017-05-28T06:33:55.676Z,280
2017-05-28T06:35:06.075Z,280
2017-05-28T06:36:16.113Z,280
2017-05-28T06:37:25.831Z,275
2017-05-28T06:38:36.178Z,270
2017-05-28T06:39:46.536Z,265
2017-05-28T06:40:56.926Z,260
2017-05-28T06:42:07.289Z,270
2017-05-28T06:43:17.664Z,255
2017-05-28T06:44:27.705Z,250
2017-05-28T06:45:37.756Z,245
2017-05-28T06:46:47.849Z,245
2017-05-28T06:47:58.220Z,235
2017-05-28T06:49:08.584Z,230
2017-05-28T06:50:18.935Z,225
2017-05-28T06:51:28.658Z,220
2017-05-28T06:52:39.063Z,215
2017-05-28T06:53:49.424Z,210
2017-05-28T06:54:59.464Z,205
2017-05-28T06:56:09.824Z,200
2017-05-28T06:57:19.246Z,200
2017-05-28T06:58:29.347Z,195
2017-05-28T06:59:39.408Z,190
2017-05-28T07:00:49.151Z,185
2017-05-28T07:01:58.891Z,185
2017-05-28T07:03:09.240Z,180
2017-05-28T07:04:19.656Z,175
2017-05-28T07:05:30.014Z,165
2017-05-28T07:06:40.374Z,160
2017-05-28T07:07:50.717Z,160
2017-05-28T07:09:00.757Z,160
2017-05-28T07:10:11.143Z,160
2017-05-28T07:11:21.499Z,160
2017-05-28T07:12:31.863Z,160
2017-05-28T07:13:41.907Z,165
2017-05-28T07:14:52.282Z,165
2017-05-28T07:16:02.624Z,165
2017-05-28T07:17:12.668Z,165
2017-05-28T07:18:22.698Z,165
2017-05-28T07:19:33.060Z,165
2017-05-28T07:20:42.794Z,165
2017-05-28T07:21:53.156Z,170
2017-05-28T07:23:03.199Z,165
2017-05-28T07:24:13.550Z,165
2017-05-28T07:25:23.899Z,170
2017-05-28T07:26:34.251Z,170
2017-05-28T07:27:44.370Z,170
2017-05-28T07:28:54.731Z,170
2017-05-28T07:30:05.078Z,170
2017-05-28T07:31:15.445Z,170
2017-05-28T07:32:25.883Z,170
2017-05-28T07:33:36.301Z,170
2017-05-28T07:34:46.671Z,170
2017-05-28T07:35:56.698Z,170
2017-05-28T07:37:07.046Z,170
2017-05-28T07:38:17.083Z,175
2017-05-28T07:39:27.503Z,175
2017-05-28T07:40:37.565Z,175
2017-05-28T07:41:47.937Z,175
2017-05-28T07:42:57.988Z,175
2017-05-28T07:44:08.357Z,175
2017-05-28T07:45:18.411Z,175
2017-05-28T07:46:28.746Z,175
2017-05-28T07:47:39.110Z,175
2017-05-28T07:48:48.844Z,175
2017-05-28T07:49:59.202Z,175
2017-05-28T07:51:09.292Z,175
2017-05-28T07:52:19.336Z,175
2017-05-28T07:53:29.698Z,175
2017-05-28T07:54:40.045Z,175
2017-05-28T07:55:50.493Z,175
2017-05-28T07:57:00.657Z,175
2017-05-28T07:58:11.043Z,180
2017-05-28T07:59:21.418Z,180
2017-05-28T08:00:31.783Z,180
2017-05-28T08:01:42.153Z,180
2017-05-28T08:02:52.520Z,180
2017-05-28T08:04:02.911Z,180
2017-05-28T08:05:12.973Z,180
2017-05-28T08:06:23.335Z,180
2017-05-28T08:07:33.381Z,180
2017-05-28T08:08:43.755Z,180
2017-05-28T08:09:54.124Z,180
2017-05-28T08:11:04.489Z,180
2017-05-28T08:12:15.077Z,180
2017-05-28T08:13:25.437Z,180
2017-05-28T08:14:35.803Z,185
2017-05-28T08:15:45.854Z,185
2017-05-28T08:16:56.202Z,185
2017-05-28T08:18:06.563Z,185
2017-05-28T08:19:16.947Z,185
2017-05-28T08:20:27.310Z,185
2017-05-28T08:21:37.668Z,185
2017-05-28T08:22:47.710Z,185
2017-05-28T08:23:58.101Z,185
2017-05-28T08:25:08.448Z,185
2017-05-28T08:26:18.540Z,185
2017-05-28T08:27:28.902Z,185
2017-05-28T08:28:38.944Z,190
2017-05-28T08:29:49.320Z,185
2017-05-28T08:30:59.678Z,185
2017-05-28T08:32:10.079Z,185
2017-05-28T08:33:20.450Z,185
2017-05-28T08:34:30.821Z,190
2017-05-28T08:35:41.179Z,190
2017-05-28T08:36:51.229Z,190
2017-05-28T08:38:01.283Z,190
2017-05-28T08:39:11.650Z,190
2017-05-28T08:40:22.007Z,190
2017-05-28T08:41:32.372Z,190
2017-05-28T08:42:42.766Z,190
2017-05-28T08:43:53.181Z,190
2017-05-28T08:45:03.537Z,190
2017-05-28T08:46:13.891Z,190
2017-05-28T08:47:23.939Z,190
2017-05-28T08:48:34.316Z,190
2017-05-28T08:49:44.692Z,190
2017-05-28T08:50:54.432Z,190
2017-05-28T08:52:04.791Z,190
2017-05-28T08:53:14.831Z,190
2017-05-28T08:54:25.186Z,190
2017-05-28T08:55:35.274Z,195
2017-05-28T08:56:45.860Z,190
2017-05-28T08:57:55.904Z,190
2017-05-28T08:59:05.632Z,195
2017-05-28T09:00:15.353Z,190
2017-05-28T09:01:25.788Z,195
2017-05-28T09:02:36.195Z,195
2017-05-28T09:03:46.587Z,195
2017-05-28T09:04:56.948Z,195
2017-05-28T09:06:06.990Z,195
2017-05-28T09:07:17.413Z,195
2017-05-28T09:08:27.787Z,195
2017-05-28T09:09:38.169Z,195
2017-05-28T09:10:48.552Z,195
2017-05-28T09:11:58.901Z,195
2017-05-28T09:13:08.691Z,195
2017-05-28T09:14:19.043Z,200
2017-05-28T09:15:29.086Z,195
2017-05-28T09:16:39.138Z,195
2017-05-28T09:17:49.498Z,195
2017-05-28T09:18:59.870Z,200
2017-05-28T09:20:09.912Z,195
2017-05-28T09:21:20.274Z,195
2017-05-28T09:22:30.004Z,200
2017-05-28T09:23:40.376Z,200
2017-05-28T09:24:50.802Z,200
2017-05-28T09:26:01.160Z,200
2017-05-28T09:27:11.516Z,200
2017-05-28T09:28:21.552Z,200
2017-05-28T09:29:31.923Z,200
2017-05-28T09:30:41.730Z,200
2017-05-28T09:31:52.078Z,200
2017-05-28T09:33:02.167Z,200
2017-05-28T09:34:12.210Z,200
2017-05-28T09:35:22.576Z,200
2017-05-28T09:36:32.975Z,205
2017-05-28T09:37:43.319Z,205
2017-05-28T09:38:53.675Z,205
2017-05-28T09:40:04.042Z,205
2017-05-28T09:41:14.458Z,205
2017-05-28T09:42:24.556Z,205
2017-05-28T09:43:34.270Z,205
2017-05-28T09:44:44.623Z,205
2017-05-28T09:45:54.976Z,205
2017-05-28T09:47:05.324Z,205
2017-05-28T09:48:15.394Z,210
2017-05-28T09:49:25.748Z,210
2017-05-28T09:50:36.187Z,210
2017-05-28T09:51:46.549Z,210
2017-05-28T09:52:56.932Z,210
2017-05-28T09:54:07.290Z,210
2017-05-28T09:55:17.656Z,210
2017-05-28T09:56:27.704Z,210
2017-05-28T09:57:38.092Z,210
2017-05-28T09:58:48.459Z,210
2017-05-28T09:59:58.816Z,210
2017-05-28T10:01:09.191Z,210
2017-05-28T10:02:18.925Z,210
2017-05-28T10:03:29.283Z,210
2017-05-28T10:04:39.352Z,215
2017-05-28T10:05:49.414Z,215
2017-05-28T10:06:59.796Z,215
2017-05-28T10:08:10.173Z,215
2017-05-28T10:09:19.916Z,215
2017-05-28T10:10:30.303Z,215
2017-05-28T10:11:40.649Z,215
2017-05-28T10:12:51.001Z,215
2017-05-28T10:14:01.375Z,215
2017-05-28T10:15:11.426Z,215
2017-05-28T10:16:21.497Z,215
2017-05-28T10:17:31.541Z,215
2017-05-28T10:18:41.895Z,215
2017-05-28T10:19:52.266Z,220
2017-05-28T10:21:02.616Z,220
2017-05-28T10:22:12.997Z,220
2017-05-28T10:23:23.374Z,220
2017-05-28T10:24:33.760Z,220
2017-05-28T10:25:44.137Z,220
2017-05-28T10:26:54.518Z,220
2017-05-28T10:28:04.884Z,225
2017-05-28T10:29:15.301Z,220
2017-05-28T10:30:25.671Z,220
2017-05-28T10:31:36.022Z,220
2017-05-28T10:32:46.387Z,220
2017-05-28T10:33:56.738Z,220
2017-05-28T10:35:06.837Z,225
2017-05-28T10:36:17.178Z,225
2017-05-28T10:37:27.240Z,225
2017-05-28T10:38:37.595Z,225
2017-05-28T10:39:47.944Z,225
2017-05-28T10:40:58.629Z,225
2017-05-28T10:42:09.001Z,225
2017-05-28T10:43:19.382Z,225
2017-05-28T10:44:29.429Z,225
2017-05-28T10:45:39.805Z,225
2017-05-28T10:46:50.163Z,225
2017-05-28T10:48:00.209Z,225
2017-05-28T10:49:10.265Z,230
2017-05-28T10:50:20.651Z,230
2017-05-28T10:51:31.004Z,230
2017-05-28T10:52:41.415Z,230
2017-05-28T10:53:51.780Z,230
2017-05-28T10:55:01.855Z,230
2017-05-28T10:56:11.582Z,230
2017-05-28T10:57:21.926Z,230
2017-05-28T10:58:32.289Z,230
2017-05-28T10:59:42.644Z,230
2017-05-28T11:00:52.399Z,230
2017-05-28T11:02:02.768Z,230
2017-05-28T11:03:13.130Z,230
2017-05-28T11:04:23.189Z,235
2017-05-28T11:05:33.233Z,230
2017-05-28T11:06:43.276Z,235
2017-05-28T11:07:53.645Z,235
2017-05-28T11:09:04.026Z,235
2017-05-28T11:10:14.407Z,235
2017-05-28T11:11:24.450Z,235
2017-05-28T11:12:34.498Z,235
2017-05-28T11:13:44.542Z,235
2017-05-28T11:14:54.597Z,235
2017-05-28T11:16:04.695Z,235
2017-05-28T11:17:15.048Z,235
2017-05-28T11:18:25.432Z,235
2017-05-28T11:19:35.810Z,235
2017-05-28T11:20:45.542Z,235
2017-05-28T11:21:55.948Z,235
2017-05-28T11:23:05.999Z,235
2017-05-28T11:24:16.031Z,235
2017-05-28T11:25:26.387Z,235
2017-05-28T11:26:36.755Z,235
2017-05-28T11:27:46.864Z,235
2017-05-28T11:28:57.227Z,235
2017-05-28T11:30:07.586Z,235
2017-05-28T11:31:17.951Z,235
2017-05-28T11:32:27.730Z,235
2017-05-28T11:33:37.784Z,235
2017-05-28T11:34:48.141Z,235
2017-05-28T11:35:58.187Z,235
2017-05-28T11:37:08.560Z,235
2017-05-28T11:38:18.605Z,235
2017-05-28T11:39:29.037Z,235
2017-05-28T11:40:39.083Z,235
2017-05-28T11:41:49.472Z,235
2017-05-28T11:42:59.838Z,235
2017-05-28T11:44:10.211Z,235
2017-05-28T11:45:20.619Z,235
2017-05-28T11:46:30.691Z,235
2017-05-28T11:47:41.067Z,235
2017-05-28T11:48:51.439Z,235
2017-05-28T11:50:01.811Z,235
2017-05-28T11:51:12.182Z,235
2017-05-28T11:52:22.548Z,235
2017-05-28T11:53:32.907Z,235
2017-05-28T11:54:43.298Z,235
2017-05-28T11:55:53.677Z,235
2017-05-28T11:57:04.089Z,235
2017-05-28T11:58:14.453Z,235
2017-05-28T11:59:24.515Z,240
2017-05-28T12:00:34.573Z,240
2017-05-28T12:01:44.963Z,240
2017-05-28T12:02:55.057Z,235
2017-05-28T12:04:05.420Z,235
2017-05-28T12:05:15.788Z,240
2017-05-28T12:06:25.856Z,235
2017-05-28T12:07:36.230Z,235
2017-05-28T12:08:46.654Z,235
2017-05-28T12:09:56.706Z,235
2017-05-28T12:11:07.083Z,235
2017-05-28T12:12:17.443Z,235
2017-05-28T12:13:27.794Z,235
2017-05-28T12:14:38.156Z,235
2017-05-28T12:15:48.523Z,235
2017-05-28T12:16:58.884Z,235
2017-05-28T12:18:09.233Z,235
2017-05-28T12:19:19.614Z,235
2017-05-28T12:20:29.361Z,235
2017-05-28T12:21:39.736Z,235
2017-05-28T12:22:50.108Z,230
2017-05-28T12:23:59.832Z,230
2017-05-28T12:25:09.884Z,230
2017-05-28T12:26:20.303Z,230
2017-05-28T12:27:30.669Z,230
2017-05-28T12:28:41.038Z,230
2017-05-28T12:29:51.092Z,230
2017-05-28T12:31:01.141Z,230
2017-05-28T12:32:11.248Z,230
2017-05-28T12:33:21.615Z,230
2017-05-28T12:34:31.658Z,230
2017-05-28T12:35:42.053Z,230
2017-05-28T12:36:52.121Z,230
2017-05-28T12:38:02.550Z,230
2017-05-28T12:39:12.920Z,230
2017-05-28T12:40:23.287Z,225
2017-05-28T12:41:33.348Z,225
2017-05-28T12:42:43.402Z,225
2017-05-28T12:43:53.828Z,225
2017-05-28T12:45:03.866Z,225
2017-05-28T12:46:13.914Z,225
2017-05-28T12:47:23.950Z,225
2017-05-28T12:48:34.318Z,225
2017-05-28T12:49:44.434Z,225
2017-05-28T12:50:54.808Z,225
2017-05-28T12:52:05.179Z,225
2017-05-28T12:53:15.559Z,225
2017-05-28T12:54:25.920Z,225
2017-05-28T12:55:36.327Z,225
2017-05-28T12:56:46.077Z,225
2017-05-28T12:57:56.452Z,220
2017-05-28T12:59:07.015Z,220
2017-05-28T13:00:17.382Z,220
2017-05-28T13:01:27.811Z,220
2017-05-28T13:02:38.192Z,220
2017-05-28T13:03:48.249Z,220
2017-05-28T13:04:58.619Z,220
2017-05-28T13:06:08.994Z,220
2017-05-28T13:07:19.407Z,220
2017-05-28T13:08:29.760Z,220
2017-05-28T13:09:40.199Z,220
2017-05-28T13:10:50.567Z,220
2017-05-28T13:12:00.925Z,220
2017-05-28T13:13:10.981Z,225
2017-05-28T13:14:20.093Z,220
2017-05-28T13:15:29.858Z,215
2017-05-28T13:16:40.236Z,215
2017-05-28T13:17:50.604Z,215
2017-05-28T13:19:00.653Z,215
2017-05-28T13:20:10.709Z,215
2017-05-28T13:21:21.083Z,215
2017-05-28T13:22:31.434Z,215
2017-05-28T13:23:41.505Z,215
2017-05-28T13:24:51.922Z,215
2017-05-28T13:26:02.295Z,215
2017-05-28T13:27:12.666Z,215
2017-05-28T13:28:22.752Z,210
2017-05-28T13:29:33.124Z,210
2017-05-28T13:30:43.165Z,210
2017-05-28T13:31:53.223Z,210
2017-05-28T13:33:03.609Z,210
2017-05-28T13:34:13.951Z,210
2017-05-28T13:35:24.320Z,210
2017-05-28T13:36:34.352Z,210
2017-05-28T13:37:44.713Z,210
2017-05-28T13:38:55.101Z,210
2017-05-28T13:40:05.469Z,210
2017-05-28T13:41:15.828Z,205
2017-05-28T13:42:25.930Z,205
2017-05-28T13:43:36.289Z,205
2017-05-28T13:44:46.644Z,205
2017-05-28T13:45:56.930Z,205
2017-05-28T13:47:07.286Z,205
2017-05-28T13:48:17.705Z,205
2017-05-28T13:49:27.761Z,205
2017-05-28T13:50:38.120Z,205
2017-05-28T13:51:48.488Z,200
2017-05-28T13:52:58.225Z,200
2017-05-28T13:54:08.348Z,200
2017-05-28T13:55:18.721Z,200
2017-05-28T13:56:29.081Z,200
2017-05-28T13:57:39.453Z,200
2017-05-28T13:58:49.525Z,200
2017-05-28T13:59:59.623Z,200
2017-05-28T14:01:09.688Z,200
2017-05-28T14:02:20.054Z,200
2017-05-28T14:03:30.091Z,195
2017-05-28T14:04:39.510Z,195
2017-05-28T14:05:49.960Z,195
2017-05-28T14:07:00.325Z,195
2017-05-28T14:08:10.772Z,195
2017-05-28T14:09:21.159Z,195
2017-05-28T14:10:31.525Z,195
2017-05-28T14:11:41.954Z,190
2017-05-28T14:12:52.321Z,190
2017-05-28T14:14:02.673Z,190
2017-05-28T14:15:13.045Z,195
2017-05-28T14:16:23.407Z,190
2017-05-28T14:17:33.838Z,190
2017-05-28T14:18:44.214Z,190
2017-05-28T14:19:54.570Z,190
2017-05-28T14:21:04.931Z,190
2017-05-28T14:22:14.990Z,190
2017-05-28T14:23:25.092Z,190
2017-05-28T14:24:35.450Z,190
2017-05-28T14:25:45.507Z,190
2017-05-28T14:26:55.557Z,190
2017-05-28T14:28:05.618Z,190
2017-05-28T14:29:16.022Z,190
2017-05-28T14:30:26.392Z,185
2017-05-28T14:31:36.773Z,185
2017-05-28T14:32:47.147Z,185
2017-05-28T14:33:57.203Z,185
2017-05-28T14:35:06.062Z,185
2017-05-28T14:36:16.426Z,185
2017-05-28T14:37:26.537Z,180
2017-05-28T14:38:37.143Z,180
2017-05-28T14:39:47.200Z,180
2017-05-28T14:40:57.554Z,180
2017-05-28T14:42:07.936Z,180
2017-05-28T14:43:18.308Z,180
2017-05-28T14:44:28.685Z,175
2017-05-28T14:45:38.793Z,175
2017-05-28T14:46:48.625Z,175
2017-05-28T14:47:58.984Z,175
2017-05-28T14:49:09.052Z,175
2017-05-28T14:50:19.417Z,175
2017-05-28T14:51:29.794Z,175
2017-05-28T14:52:40.222Z,175
2017-05-28T14:53:50.607Z,175
2017-05-28T14:55:00.982Z,170
2017-05-28T14:56:11.353Z,170
2017-05-28T14:57:21.087Z,170
2017-05-28T14:58:31.498Z,170
2017-05-28T14:59:41.870Z,170
2017-05-28T15:00:51.932Z,170
2017-05-28T15:02:02.309Z,170
2017-05-28T15:03:12.711Z,165
2017-05-28T15:04:23.138Z,165
2017-05-28T15:05:33.492Z,165
2017-05-28T15:06:43.879Z,165
2017-05-28T15:07:54.113Z,165
2017-05-28T15:09:04.475Z,165
2017-05-28T15:10:14.523Z,165
2017-05-28T15:11:24.892Z,165
2017-05-28T15:12:34.934Z,160
2017-05-28T15:13:45.356Z,160
2017-05-28T15:14:55.721Z,160
2017-05-28T15:16:05.775Z,160
2017-05-28T15:17:16.169Z,160
2017-05-28T15:18:26.539Z,160
2017-05-28T15:19:36.597Z,160
2017-05-28T15:20:46.655Z,160
2017-05-28T15:21:56.705Z,155
2017-05-28T15:23:06.462Z,155
2017-05-28T15:24:16.855Z,155
2017-05-28T15:25:27.227Z,155
2017-05-28T15:26:37.606Z,155
2017-05-28T15:27:48.014Z,155
2017-05-28T15:28:58.384Z,155
2017-05-28T15:30:08.758Z,155
2017-05-28T15:31:18.510Z,150
2017-05-28T15:32:28.567Z,150
2017-05-28T15:33:39.104Z,150
2017-05-28T15:34:49.484Z,150
2017-05-28T15:35:59.531Z,150
2017-05-28T15:37:09.894Z,150
2017-05-28T15:38:20.276Z,150
2017-05-28T15:39:30.678Z,150
2017-05-28T15:40:41.054Z,145
2017-05-28T15:41:51.096Z,145
2017-05-28T15:43:00.831Z,145
2017-05-28T15:44:11.200Z,145
2017-05-28T15:45:21.578Z,145
2017-05-28T15:46:31.942Z,145
2017-05-28T15:47:42.313Z,140
2017-05-28T15:48:52.695Z,140
2017-05-28T15:50:02.759Z,140
2017-05-28T15:51:13.157Z,140
2017-05-28T15:52:23.527Z,140
2017-05-28T15:53:33.904Z,140
2017-05-28T15:54:44.271Z,140
2017-05-28T15:55:54.653Z,140
2017-05-28T15:57:05.071Z,140
2017-05-28T15:58:15.449Z,140
2017-05-28T15:59:25.796Z,140
2017-05-28T16:00:35.838Z,140
2017-05-28T16:01:45.881Z,135
2017-05-28T16:02:56.301Z,140
2017-05-28T16:04:06.435Z,135
2017-05-28T16:05:16.791Z,135
2017-05-28T16:06:27.173Z,130
2017-05-28T16:07:36.912Z,130
2017-05-28T16:08:47.321Z,130
2017-05-28T16:09:57.373Z,130
2017-05-28T16:11:07.748Z,125
2017-05-28T16:12:18.112Z,125
2017-05-28T16:13:28.478Z,125
2017-05-28T16:14:38.528Z,125
2017-05-28T16:15:48.891Z,120
2017-05-28T16:16:58.929Z,120
2017-05-28T16:18:09.290Z,120
2017-05-28T16:19:19.350Z,120
2017-05-28T16:20:29.107Z,120
2017-05-28T16:21:39.464Z,120
2017-05-28T16:22:49.823Z,120
2017-05-28T16:24:00.237Z,125
2017-05-28T16:25:10.597Z,120
2017-05-28T16:26:20.706Z,115
2017-05-28T16:27:30.753Z,115
2017-05-28T16:28:41.131Z,115
2017-05-28T16:29:51.195Z,115
2017-05-28T16:31:01.568Z,115
2017-05-28T16:32:11.937Z,115
2017-05-28T16:33:22.321Z,110
2017-05-28T16:34:32.704Z,110
2017-05-28T16:35:42.756Z,110
2017-05-28T16:36:52.824Z,110
2017-05-28T16:38:03.221Z,110
2017-05-28T16:39:13.272Z,105
2017-05-28T16:40:23.650Z,105
2017-05-28T16:41:33.727Z,105
2017-05-28T16:42:44.106Z,105
2017-05-28T16:43:54.213Z,105
2017-05-28T16:45:04.264Z,100
2017-05-28T16:46:14.633Z,105
2017-05-28T16:47:25.231Z,100
2017-05-28T16:48:35.300Z,100
2017-05-28T16:49:45.655Z,100
2017-05-28T16:50:56.019Z,95
2017-05-28T16:52:06.369Z,95